createdAt,value
2023-02-11T00:02:15.797Z,-8.96
2023-02-11T00:04:44.183Z,-8.94
2023-02-11T00:07:12.719Z,-9.00
2023-02-11T00:09:41.234Z,-8.99
2023-02-11T00:12:09.755Z,-9.05
2023-02-11T00:14:38.302Z,-9.06
2023-02-11T00:17:06.764Z,-9.10
2023-02-11T00:19:35.180Z,-9.14
2023-02-11T00:22:03.576Z,-9.22
2023-02-11T00:24:32.127Z,-9.36
2023-02-11T00:27:00.757Z,-9.45
2023-02-11T00:29:29.442Z,-9.49
2023-02-11T00:31:58.063Z,-9.48
2023-02-11T00:34:26.757Z,-9.54
2023-02-11T00:36:55.331Z,-9.59
2023-02-11T00:39:23.899Z,-9.65
2023-02-11T00:41:52.489Z,-9.71
2023-02-11T00:44:21.446Z,-9.69
2023-02-11T00:46:50.024Z,-9.71
2023-02-11T00:49:18.707Z,-9.65
2023-02-11T00:51:47.220Z,-9.71
2023-02-11T00:54:15.778Z,-9.74
2023-02-11T00:56:44.906Z,-9.73
2023-02-11T00:59:13.390Z,-9.72
2023-02-11T01:01:41.956Z,-9.71
2023-02-11T01:04:11.015Z,-9.71
2023-02-11T01:06:41.694Z,-9.79
2023-02-11T01:09:10.163Z,-9.87
2023-02-11T01:11:38.595Z,-9.86
2023-02-11T01:14:07.083Z,-9.93
2023-02-11T01:16:35.552Z,-9.91
2023-02-11T01:19:04.256Z,-9.82
2023-02-11T01:21:32.869Z,-9.78
2023-02-11T01:24:01.305Z,-9.76
2023-02-11T01:26:29.777Z,-9.81
2023-02-11T01:29:00.961Z,-9.85
2023-02-11T01:31:31.974Z,-9.86
2023-02-11T01:34:02.159Z,-9.86
2023-02-11T01:36:31.009Z,-9.78
2023-02-11T01:39:01.893Z,-9.76
2023-02-11T01:41:31.001Z,-9.77
2023-02-11T01:43:59.562Z,-9.77
2023-02-11T01:46:39.136Z,-9.73
2023-02-11T01:49:17.988Z,-9.70
2023-02-11T01:52:03.918Z,-9.65
2023-02-11T01:54:56.789Z,-9.61
2023-02-11T01:57:31.297Z,-9.62
2023-02-11T02:00:20.472Z,-9.60
2023-02-11T02:03:06.224Z,-9.70
2023-02-11T02:05:58.058Z,-9.79
2023-02-11T02:08:44.121Z,-9.74
2023-02-11T02:11:13.063Z,-9.75
2023-02-11T02:13:42.761Z,-9.77
2023-02-11T02:16:18.109Z,-9.73
2023-02-11T02:18:58.844Z,-9.69
2023-02-11T02:21:59.561Z,-9.68
2023-02-11T02:24:38.224Z,-9.72
2023-02-11T02:27:17.468Z,-9.75
2023-02-11T02:30:20.367Z,-9.79
2023-02-11T02:33:05.785Z,-9.72
2023-02-11T02:36:03.050Z,-9.70
2023-02-11T02:38:46.527Z,-9.86
2023-02-11T02:41:24.035Z,-9.75
2023-02-11T02:43:52.932Z,-9.75
2023-02-11T02:46:24.352Z,-9.68
2023-02-11T02:48:54.691Z,-9.66
2023-02-11T02:52:00.855Z,-9.69
2023-02-11T02:55:02.918Z,-9.70
2023-02-11T02:57:53.324Z,-9.58
2023-02-11T03:00:44.667Z,-9.51
2023-02-11T03:04:12.371Z,-9.38
2023-02-11T03:06:56.900Z,-9.30
2023-02-11T03:09:50.909Z,-9.13
2023-02-11T03:12:21.125Z,-9.08
2023-02-11T03:14:52.091Z,-8.92
2023-02-11T03:17:22.224Z,-8.86
2023-02-11T03:19:52.039Z,-8.81
2023-02-11T03:22:32.828Z,-8.78
2023-02-11T03:25:03.013Z,-8.79
2023-02-11T03:27:50.194Z,-8.80
2023-02-11T03:30:35.332Z,-8.77
2023-02-11T03:33:14.456Z,-8.72
2023-02-11T03:36:08.130Z,-8.65
2023-02-11T03:38:46.172Z,-8.61
2023-02-11T03:41:18.260Z,-8.38
2023-02-11T03:43:53.417Z,-8.31
2023-02-11T03:46:31.441Z,-8.28
2023-02-11T03:49:09.548Z,-8.20
2023-02-11T03:51:39.250Z,-8.15
2023-02-11T03:54:18.309Z,-8.10
2023-02-11T03:56:55.479Z,-8.00
2023-02-11T03:59:24.065Z,-7.87
2023-02-11T04:01:53.121Z,-7.92
2023-02-11T04:04:21.772Z,-7.97
2023-02-11T04:06:50.322Z,-8.02
2023-02-11T04:09:18.767Z,-7.99
2023-02-11T04:11:47.209Z,-8.10
2023-02-11T04:14:15.624Z,-8.06
2023-02-11T04:16:44.174Z,-8.06
2023-02-11T04:19:12.698Z,-8.09
2023-02-11T04:21:41.225Z,-8.16
2023-02-11T04:24:09.804Z,-8.12
2023-02-11T04:26:38.239Z,-8.08
2023-02-11T04:29:06.956Z,-7.99
2023-02-11T04:31:35.553Z,-7.89
2023-02-11T04:34:04.140Z,-7.80
2023-02-11T04:36:32.722Z,-7.66
2023-02-11T04:39:01.276Z,-7.51
2023-02-11T04:41:29.891Z,-7.41
2023-02-11T04:43:58.505Z,-7.31
2023-02-11T04:46:27.121Z,-7.31
2023-02-11T04:48:57.201Z,-7.26
2023-02-11T04:51:26.080Z,-7.18
2023-02-11T04:53:54.685Z,-7.10
2023-02-11T04:56:23.242Z,-7.06
2023-02-11T04:58:51.673Z,-7.01
2023-02-11T05:01:20.274Z,-7.00
2023-02-11T05:03:49.352Z,-6.96
2023-02-11T05:06:18.791Z,-6.92
2023-02-11T05:08:47.513Z,-7.03
2023-02-11T05:11:21.714Z,-7.05
2023-02-11T05:13:50.471Z,-7.11
2023-02-11T05:16:19.522Z,-7.09
2023-02-11T05:18:49.686Z,-7.04
2023-02-11T05:21:20.087Z,-7.07
2023-02-11T05:23:49.274Z,-7.07
2023-02-11T05:26:18.763Z,-7.08
2023-02-11T05:28:49.791Z,-7.04
2023-02-11T05:31:18.720Z,-7.15
2023-02-11T05:33:47.541Z,-7.07
2023-02-11T05:36:16.975Z,-7.07
2023-02-11T05:38:45.648Z,-7.04
2023-02-11T05:41:15.135Z,-7.00
2023-02-11T05:43:43.674Z,-6.90
2023-02-11T05:46:12.338Z,-6.91
2023-02-11T05:48:40.916Z,-6.86
2023-02-11T05:51:09.504Z,-6.79
2023-02-11T05:53:38.014Z,-6.71
2023-02-11T05:56:07.133Z,-6.67
2023-02-11T05:58:35.774Z,-6.63
2023-02-11T06:01:04.585Z,-6.56
2023-02-11T06:03:33.241Z,-6.46
2023-02-11T06:06:01.783Z,-6.35
2023-02-11T06:08:30.412Z,-6.26
2023-02-11T06:10:58.970Z,-6.21
2023-02-11T06:13:27.500Z,-6.23
2023-02-11T06:15:58.445Z,-6.22
2023-02-11T06:18:27.557Z,-6.20
2023-02-11T06:20:56.463Z,-6.13
2023-02-11T06:23:24.987Z,-6.12
2023-02-11T06:25:53.971Z,-6.12
2023-02-11T06:28:22.819Z,-6.11
2023-02-11T06:30:51.490Z,-6.11
2023-02-11T06:33:20.118Z,-6.01
2023-02-11T06:35:48.913Z,-6.01
2023-02-11T06:38:17.689Z,-6.00
2023-02-11T06:40:49.923Z,-6.02
2023-02-11T06:43:18.628Z,-5.90
2023-02-11T06:45:54.453Z,-5.80
2023-02-11T06:48:24.319Z,-5.62
2023-02-11T06:50:52.860Z,-5.50
2023-02-11T06:53:21.280Z,-5.37
2023-02-11T06:55:50.132Z,-5.22
2023-02-11T06:58:18.964Z,-5.06
2023-02-11T07:00:47.719Z,-4.89
2023-02-11T07:03:16.368Z,-4.72
2023-02-11T07:05:45.191Z,-4.58
2023-02-11T07:08:14.114Z,-4.41
2023-02-11T07:10:42.920Z,-4.29
2023-02-11T07:13:11.519Z,-4.18
2023-02-11T07:15:40.101Z,-3.99
2023-02-11T07:18:08.834Z,-3.85
2023-02-11T07:20:39.097Z,-3.66
2023-02-11T07:23:07.649Z,-3.41
2023-02-11T07:25:37.405Z,-3.33
2023-02-11T07:28:06.149Z,-3.20
2023-02-11T07:30:34.666Z,-3.11
2023-02-11T07:33:03.173Z,-2.95
2023-02-11T07:35:31.870Z,-2.80
2023-02-11T07:38:00.542Z,-2.62
2023-02-11T07:40:29.163Z,-2.47
2023-02-11T07:42:57.784Z,-2.35
2023-02-11T07:45:26.345Z,-2.29
2023-02-11T07:47:54.893Z,-2.23
2023-02-11T07:50:23.479Z,-2.19
2023-02-11T07:52:52.101Z,-2.09
2023-02-11T07:55:20.658Z,-2.04
2023-02-11T07:57:49.566Z,-2.06
2023-02-11T08:00:20.814Z,-2.03
2023-02-11T08:02:49.705Z,-1.99
2023-02-11T08:05:18.510Z,-1.95
2023-02-11T08:07:47.233Z,-1.88
2023-02-11T08:10:15.953Z,-1.84
2023-02-11T08:12:44.523Z,-1.75
2023-02-11T08:15:13.124Z,-1.66
2023-02-11T08:17:41.618Z,-1.57
2023-02-11T08:20:10.753Z,-1.53
2023-02-11T08:22:39.352Z,-1.46
2023-02-11T08:25:08.436Z,-1.40
2023-02-11T08:27:36.973Z,-1.35
2023-02-11T08:30:06.573Z,-1.29
2023-02-11T08:32:35.851Z,-1.16
2023-02-11T08:35:05.133Z,-1.08
2023-02-11T08:37:34.215Z,-0.94
2023-02-11T08:40:02.736Z,-0.82
2023-02-11T08:42:31.289Z,-0.77
2023-02-11T08:44:59.748Z,-0.65
2023-02-11T08:47:28.248Z,-0.52
2023-02-11T08:49:56.754Z,-0.43
2023-02-11T08:52:25.177Z,-0.39
2023-02-11T08:54:53.797Z,-0.37
2023-02-11T08:57:22.525Z,-0.25
2023-02-11T08:59:51.040Z,-0.18
2023-02-11T09:02:19.629Z,-0.12
2023-02-11T09:04:48.280Z,0.03
2023-02-11T09:07:16.837Z,0.10
2023-02-11T09:09:45.444Z,0.22
2023-02-11T09:12:14.042Z,0.34
2023-02-11T09:14:43.261Z,0.50
2023-02-11T09:17:11.880Z,0.60
2023-02-11T09:19:40.476Z,0.71
2023-02-11T09:22:09.003Z,0.77
2023-02-11T09:24:37.611Z,0.87
2023-02-11T09:27:06.435Z,1.05
2023-02-11T09:29:35.573Z,1.26
2023-02-11T09:32:04.488Z,1.39
2023-02-11T09:34:33.133Z,1.46
2023-02-11T09:37:02.038Z,1.56
2023-02-11T09:39:30.733Z,1.60
2023-02-11T09:42:26.421Z,1.72
2023-02-11T09:44:54.912Z,1.76
2023-02-11T09:47:34.630Z,1.79
2023-02-11T09:50:23.396Z,1.72
2023-02-11T09:53:15.297Z,1.80
2023-02-11T09:55:48.456Z,1.80
2023-02-11T09:58:32.290Z,1.76
2023-02-11T10:01:02.022Z,1.86
2023-02-11T10:04:22.488Z,1.98
2023-02-11T10:07:12.684Z,2.12
2023-02-11T10:10:11.518Z,2.23
2023-02-11T10:13:14.079Z,2.34
2023-02-11T10:16:08.713Z,2.50
2023-02-11T10:19:08.837Z,2.66
2023-02-11T10:21:52.990Z,2.86
2023-02-11T10:24:22.299Z,2.92
2023-02-11T10:26:52.311Z,2.89
2023-02-11T10:29:38.917Z,2.89
2023-02-11T10:32:31.853Z,2.93
2023-02-11T10:35:10.739Z,2.80
2023-02-11T10:37:39.321Z,2.93
2023-02-11T10:40:23.921Z,3.03
2023-02-11T10:42:57.792Z,3.13
2023-02-11T10:45:48.972Z,3.18
2023-02-11T10:48:37.528Z,3.23
2023-02-11T10:51:14.601Z,3.12
2023-02-11T10:53:43.890Z,3.11
2023-02-11T10:56:24.757Z,3.12
2023-02-11T10:59:05.413Z,3.16
2023-02-11T11:02:21.760Z,3.14
2023-02-11T11:04:55.888Z,3.20
2023-02-11T11:07:33.262Z,3.06
2023-02-11T11:10:05.768Z,2.96
2023-02-11T11:12:48.995Z,3.06
2023-02-11T11:15:21.915Z,3.09
2023-02-11T11:18:20.920Z,3.09
2023-02-11T11:21:00.210Z,2.91
2023-02-11T11:23:32.361Z,2.84
2023-02-11T11:26:13.181Z,2.81
2023-02-11T11:29:10.820Z,2.91
2023-02-11T11:32:04.557Z,2.87
2023-02-11T11:34:42.062Z,2.88
2023-02-11T11:37:25.096Z,2.74
2023-02-11T11:40:16.938Z,2.77
2023-02-11T11:42:45.611Z,2.81
2023-02-11T11:45:19.910Z,2.79
2023-02-11T11:48:25.415Z,2.90
2023-02-11T11:51:01.507Z,3.03
2023-02-11T11:53:57.755Z,3.06
2023-02-11T11:56:34.193Z,3.01
2023-02-11T11:59:16.735Z,3.09
2023-02-11T12:02:08.589Z,3.14
2023-02-11T12:05:11.017Z,3.04
2023-02-11T12:08:21.484Z,3.14
2023-02-11T12:11:50.368Z,3.13
2023-02-11T12:14:44.458Z,3.02
2023-02-11T12:18:06.946Z,3.04
2023-02-11T12:21:00.006Z,2.98
2023-02-11T12:23:42.550Z,3.15
2023-02-11T12:26:19.846Z,3.14
2023-02-11T12:29:12.876Z,3.20
2023-02-11T12:31:41.157Z,3.24
2023-02-11T12:35:24.186Z,3.32
2023-02-11T12:38:08.584Z,3.35
2023-02-11T12:41:14.774Z,3.32
2023-02-11T12:43:45.203Z,3.37
2023-02-11T12:46:50.681Z,3.41
2023-02-11T12:49:38.891Z,3.26
2023-02-11T12:52:45.129Z,3.25
2023-02-11T12:55:30.528Z,3.11
2023-02-11T12:58:01.952Z,3.00
2023-02-11T13:01:02.172Z,2.98
2023-02-11T13:03:39.403Z,2.94
2023-02-11T13:06:37.073Z,2.92
2023-02-11T13:09:13.223Z,2.95
2023-02-11T13:11:52.212Z,2.95
2023-02-11T13:14:32.774Z,3.01
2023-02-11T13:17:04.139Z,2.99
2023-02-11T13:19:43.818Z,3.03
2023-02-11T13:22:19.854Z,3.06
2023-02-11T13:25:18.108Z,3.08
2023-02-11T13:28:38.916Z,3.07
2023-02-11T13:31:09.498Z,3.01
2023-02-11T13:33:46.271Z,2.96
2023-02-11T13:36:22.678Z,2.88
2023-02-11T13:38:58.760Z,2.87
2023-02-11T13:41:34.092Z,2.71
2023-02-11T13:44:10.999Z,2.76
2023-02-11T13:47:02.989Z,2.70
2023-02-11T13:49:49.755Z,2.78
2023-02-11T13:52:37.869Z,2.82
2023-02-11T13:55:21.844Z,2.85
2023-02-11T13:58:17.601Z,2.86
2023-02-11T14:00:51.290Z,2.82
2023-02-11T14:03:38.496Z,2.83
2023-02-11T14:06:29.051Z,2.79
2023-02-11T14:09:09.959Z,2.80
2023-02-11T14:11:41.981Z,2.77
2023-02-11T14:14:24.444Z,2.77
2023-02-11T14:16:59.163Z,2.76
2023-02-11T14:19:44.898Z,2.66
2023-02-11T14:22:40.546Z,2.66
2023-02-11T14:25:25.551Z,2.57
2023-02-11T14:28:28.410Z,2.57
2023-02-11T14:31:11.149Z,2.55
2023-02-11T14:34:07.716Z,2.53
2023-02-11T14:36:58.776Z,2.51
2023-02-11T14:39:58.650Z,2.47
2023-02-11T14:42:31.033Z,2.38
2023-02-11T14:45:13.678Z,2.32
2023-02-11T14:47:53.250Z,2.29
2023-02-11T14:50:35.046Z,2.21
2023-02-11T14:53:06.476Z,2.14
2023-02-11T14:55:41.215Z,2.14
2023-02-11T14:58:27.819Z,2.06
2023-02-11T15:01:27.158Z,1.98
2023-02-11T15:04:03.731Z,1.94
2023-02-11T15:07:05.612Z,1.87
2023-02-11T15:09:51.175Z,1.76
2023-02-11T15:12:27.264Z,1.70
2023-02-11T15:15:01.275Z,1.61
2023-02-11T15:17:33.047Z,1.52
2023-02-11T15:20:03.194Z,1.41
2023-02-11T15:22:37.140Z,1.32
2023-02-11T15:25:16.440Z,1.24
2023-02-11T15:27:49.872Z,1.16
2023-02-11T15:30:23.411Z,1.09
2023-02-11T15:33:00.177Z,1.02
2023-02-11T15:35:37.400Z,0.93
2023-02-11T15:38:13.038Z,0.83
2023-02-11T15:41:00.914Z,0.75
2023-02-11T15:43:51.173Z,0.65
2023-02-11T15:46:26.705Z,0.59
2023-02-11T15:49:00.940Z,0.53
2023-02-11T15:51:54.704Z,0.44
2023-02-11T15:54:31.861Z,0.35
2023-02-11T15:57:07.619Z,0.27
2023-02-11T15:59:49.323Z,0.20
2023-02-11T16:02:34.721Z,0.10
2023-02-11T16:05:09.677Z,0.03
2023-02-11T16:07:50.916Z,-0.04
2023-02-11T16:10:25.571Z,-0.10
2023-02-11T16:13:13.502Z,-0.13
2023-02-11T16:15:43.594Z,-0.20
2023-02-11T16:18:37.760Z,-0.21
2023-02-11T16:21:17.064Z,-0.22
2023-02-11T16:23:57.422Z,-0.26
2023-02-11T16:26:48.104Z,-0.32
2023-02-11T16:29:24.720Z,-0.36
2023-02-11T16:31:55.295Z,-0.42
2023-02-11T16:34:26.612Z,-0.47
2023-02-11T16:36:56.106Z,-0.52
2023-02-11T16:39:24.950Z,-0.57
2023-02-11T16:41:55.813Z,-0.63
2023-02-11T16:44:27.197Z,-0.69
2023-02-11T16:47:04.599Z,-0.75
2023-02-11T16:49:43.485Z,-0.78
2023-02-11T16:52:17.025Z,-0.81
2023-02-11T16:54:46.664Z,-0.85
2023-02-11T16:57:21.807Z,-0.90
2023-02-11T16:59:52.113Z,-0.96
2023-02-11T17:02:25.796Z,-1.00
2023-02-11T17:04:58.148Z,-1.04
2023-02-11T17:07:27.611Z,-1.07
2023-02-11T17:09:56.760Z,-1.09
2023-02-11T17:12:25.872Z,-1.11
2023-02-11T17:14:55.062Z,-1.13
2023-02-11T17:17:24.227Z,-1.15
2023-02-11T17:19:59.031Z,-1.18
2023-02-11T17:22:30.913Z,-1.21
2023-02-11T17:25:00.178Z,-1.20
2023-02-11T17:27:28.909Z,-1.20
2023-02-11T17:29:57.902Z,-1.24
2023-02-11T17:32:26.990Z,-1.27
2023-02-11T17:34:56.407Z,-1.30
2023-02-11T17:37:26.127Z,-1.33
2023-02-11T17:39:55.173Z,-1.39
2023-02-11T17:42:23.733Z,-1.45
2023-02-11T17:44:52.856Z,-1.48
2023-02-11T17:47:21.896Z,-1.51
2023-02-11T17:49:51.114Z,-1.56
2023-02-11T17:52:21.950Z,-1.61
2023-02-11T17:54:51.587Z,-1.65
2023-02-11T17:57:21.172Z,-1.68
2023-02-11T17:59:50.661Z,-1.70
2023-02-11T18:02:22.093Z,-1.73
2023-02-11T18:04:52.541Z,-1.75
2023-02-11T18:07:21.410Z,-1.75
2023-02-11T18:09:50.497Z,-1.77
2023-02-11T18:12:26.807Z,-1.79
2023-02-11T18:14:58.022Z,-1.80
2023-02-11T18:17:27.017Z,-1.81
2023-02-11T18:19:57.656Z,-1.80
2023-02-11T18:22:26.760Z,-1.79
2023-02-11T18:25:05.968Z,-1.75
2023-02-11T18:27:37.740Z,-1.74
2023-02-11T18:30:20.035Z,-1.74
2023-02-11T18:32:55.771Z,-1.72
2023-02-11T18:35:27.142Z,-1.71
2023-02-11T18:37:55.696Z,-1.69
2023-02-11T18:40:25.136Z,-1.67
2023-02-11T18:42:54.059Z,-1.66
2023-02-11T18:45:24.104Z,-1.65
2023-02-11T18:47:52.888Z,-1.62
2023-02-11T18:50:24.549Z,-1.61
2023-02-11T18:52:53.812Z,-1.60
2023-02-11T18:55:26.055Z,-1.57
2023-02-11T18:57:55.986Z,-1.59
2023-02-11T19:00:27.141Z,-1.57
2023-02-11T19:02:56.908Z,-1.56
2023-02-11T19:05:29.263Z,-1.55
2023-02-11T19:07:57.958Z,-1.53
2023-02-11T19:10:34.218Z,-1.51
2023-02-11T19:13:05.339Z,-1.53
2023-02-11T19:15:34.203Z,-1.61
2023-02-11T19:18:03.189Z,-1.70
2023-02-11T19:20:34.072Z,-1.77
2023-02-11T19:23:02.938Z,-1.77
2023-02-11T19:25:34.147Z,-1.76
2023-02-11T19:28:04.817Z,-1.76
2023-02-11T19:30:36.947Z,-1.73
2023-02-11T19:33:08.288Z,-1.73
2023-02-11T19:35:39.496Z,-1.68
2023-02-11T19:38:13.528Z,-1.67
2023-02-11T19:40:46.038Z,-1.66
2023-02-11T19:43:17.550Z,-1.63
2023-02-11T19:45:47.883Z,-1.59
2023-02-11T19:48:17.118Z,-1.54
2023-02-11T19:50:50.959Z,-1.49
2023-02-11T19:53:21.516Z,-1.46
2023-02-11T19:55:52.986Z,-1.42
2023-02-11T19:58:25.514Z,-1.39
2023-02-11T20:01:01.527Z,-1.37
2023-02-11T20:03:33.368Z,-1.34
2023-02-11T20:06:17.535Z,-1.30
2023-02-11T20:08:47.326Z,-1.29
2023-02-11T20:11:18.613Z,-1.30
2023-02-11T20:13:52.879Z,-1.27
2023-02-11T20:16:44.715Z,-1.25
2023-02-11T20:19:20.139Z,-1.22
2023-02-11T20:21:51.993Z,-1.18
2023-02-11T20:24:22.123Z,-1.14
2023-02-11T20:26:55.893Z,-1.11
2023-02-11T20:29:27.871Z,-1.07
2023-02-11T20:32:00.464Z,-1.04
2023-02-11T20:34:30.725Z,-1.03
2023-02-11T20:36:59.856Z,-0.99
2023-02-11T20:39:30.356Z,-0.97
2023-02-11T20:41:58.869Z,-0.97
2023-02-11T20:44:27.794Z,-0.92
2023-02-11T20:46:56.492Z,-0.90
2023-02-11T20:49:26.761Z,-0.90
2023-02-11T20:51:56.900Z,-0.90
2023-02-11T20:54:28.677Z,-0.88
2023-02-11T20:56:58.444Z,-1.01
2023-02-11T20:59:29.505Z,-1.03
2023-02-11T21:01:58.328Z,-1.10
2023-02-11T21:04:30.566Z,-1.15
2023-02-11T21:07:02.057Z,-1.10
2023-02-11T21:09:33.416Z,-1.11
2023-02-11T21:12:02.680Z,-1.06
2023-02-11T21:14:31.658Z,-1.01
2023-02-11T21:17:00.848Z,-1.01
2023-02-11T21:19:30.056Z,-0.98
2023-02-11T21:22:00.794Z,-0.99
2023-02-11T21:24:31.009Z,-0.96
2023-02-11T21:26:59.855Z,-0.93
2023-02-11T21:29:28.715Z,-0.92
2023-02-11T21:31:57.284Z,-0.88
2023-02-11T21:34:26.147Z,-0.85
2023-02-11T21:36:54.896Z,-0.81
2023-02-11T21:39:23.814Z,-0.74
2023-02-11T21:41:52.619Z,-0.73
2023-02-11T21:44:21.072Z,-0.72
2023-02-11T21:46:50.128Z,-0.70
2023-02-11T21:49:20.306Z,-0.66
2023-02-11T21:53:59.877Z,-0.59
2023-02-11T21:56:31.397Z,-0.64
2023-02-11T21:59:01.202Z,-0.62
2023-02-11T22:01:33.935Z,-0.57
2023-02-11T22:04:03.481Z,-0.56
2023-02-11T22:06:39.824Z,-0.54
2023-02-11T22:09:11.272Z,-0.51
2023-02-11T22:11:39.866Z,-0.52
2023-02-11T22:14:08.456Z,-0.52
2023-02-11T22:16:37.200Z,-0.51
2023-02-11T22:19:07.705Z,-0.48
2023-02-11T22:21:36.362Z,-0.46
2023-02-11T22:24:05.946Z,-0.42
2023-02-11T22:26:34.501Z,-0.42
2023-02-11T22:29:03.171Z,-0.37
2023-02-11T22:31:35.262Z,-0.33
2023-02-11T22:34:05.016Z,-0.20
2023-02-11T22:36:38.273Z,-0.10
2023-02-11T22:39:18.023Z,-0.00
2023-02-11T22:41:47.943Z,0.11
2023-02-11T22:44:17.577Z,0.21
2023-02-11T22:46:46.509Z,0.29
2023-02-11T22:49:16.882Z,0.37
2023-02-11T22:51:46.978Z,0.46
2023-02-11T22:54:18.899Z,0.49
2023-02-11T22:56:51.418Z,0.51
2023-02-11T22:59:20.893Z,0.54
2023-02-11T23:01:49.706Z,0.63
2023-02-11T23:04:19.417Z,0.69
2023-02-11T23:06:48.097Z,0.72
2023-02-11T23:09:16.876Z,0.73
2023-02-11T23:11:45.510Z,0.75
2023-02-11T23:14:14.148Z,0.71
2023-02-11T23:16:42.980Z,0.67
2023-02-11T23:19:12.568Z,0.68
2023-02-11T23:21:41.308Z,0.67
2023-02-11T23:24:15.048Z,0.71
2023-02-11T23:26:44.647Z,0.64
2023-02-11T23:29:14.060Z,0.60
2023-02-11T23:31:46.648Z,0.62
2023-02-11T23:34:17.365Z,0.57
2023-02-11T23:36:46.003Z,0.53
2023-02-11T23:39:16.192Z,0.48
2023-02-11T23:41:45.980Z,0.47
2023-02-11T23:44:14.619Z,0.44
2023-02-11T23:46:43.177Z,0.47
2023-02-11T23:49:11.745Z,0.50
2023-02-11T23:51:40.263Z,0.35
2023-02-11T23:54:13.257Z,0.30
2023-02-11T23:56:44.895Z,0.25
2023-02-11T23:59:14.162Z,0.27
